Time;durP1;ratioP1;P1;durP2;ratioP2;P2;SDS_P1;SDS_P2;PMS_P1;PMS_P2;Temp;Humidity;BMP_temperature;BMP_pressure;BME280_temperature;BME280_humidity;BME280_pressure;Samples;Min_cycle;Max_cycle;Signal;HPM_P1;HPM_P2
2022/09/20 00:00:36;;;;;;;215.10;21.83;;;6.60;99.90;;;;;;5027771;28;20854;-83
2022/09/20 00:03:03;;;;;;;29.13;6.50;;;6.60;99.90;;;;;;5020960;28;20235;-82
2022/09/20 00:05:29;;;;;;;59.77;7.90;;;6.60;99.90;;;;;;5002662;28;20231;-82
2022/09/20 00:07:57;;;;;;;22.87;5.17;;;6.60;99.90;;;;;;5024773;28;20224;-82
2022/09/20 00:10:25;;;;;;;42.00;6.73;;;6.60;99.90;;;;;;5005842;28;20232;-82
2022/09/20 00:12:52;;;;;;;26.10;5.60;;;6.60;99.90;;;;;;5023718;28;21003;-84
2022/09/20 00:15:19;;;;;;;46.30;7.23;;;6.60;99.90;;;;;;5022261;28;20235;-82
2022/09/20 00:17:46;;;;;;;204.30;17.80;;;6.60;99.90;;;;;;5008673;28;20762;-83
2022/09/20 00:20:12;;;;;;;19.97;5.47;;;6.60;99.90;;;;;;5021256;28;20227;-83
2022/09/20 00:22:39;;;;;;;397.27;31.50;;;6.60;99.90;;;;;;5024142;28;20228;-84
2022/09/20 00:25:08;;;;;;;113.40;14.60;;;6.60;99.90;;;;;;5017191;28;20320;-82
2022/09/20 00:27:35;;;;;;;27.77;5.17;;;6.60;99.90;;;;;;5008000;28;20246;-82
2022/09/20 00:30:02;;;;;;;84.63;8.53;;;6.60;99.90;;;;;;5026462;28;20227;-82
2022/09/20 00:32:29;;;;;;;67.47;7.57;;;6.50;99.90;;;;;;5021162;28;20239;-82
2022/09/20 00:35:06;;;;;;;54.60;7.83;;;6.50;99.90;;;;;;5017677;28;20254;-81
2022/09/20 00:37:33;;;;;;;96.60;10.30;;;6.50;99.90;;;;;;5005620;28;20231;-81
2022/09/20 00:40:00;;;;;;;11.77;4.33;;;6.50;99.90;;;;;;5018507;28;20224;-82
2022/09/20 00:42:29;;;;;;;12.43;4.57;;;6.40;99.90;;;;;;5017220;28;20251;-81
2022/09/20 00:44:58;;;;;;;308.07;22.60;;;6.40;99.90;;;;;;5021319;28;20224;-81
2022/09/20 00:47:33;;;;;;;229.87;16.40;;;6.40;99.90;;;;;;5019947;28;20239;-83
2022/09/20 00:50:06;;;;;;;12.23;4.57;;;6.40;99.90;;;;;;5001929;28;20235;-81
2022/09/20 00:52:35;;;;;;;305.20;30.50;;;6.40;99.90;;;;;;5002289;28;20243;-82
2022/09/20 00:55:07;;;;;;;14.33;4.10;;;6.40;99.90;;;;;;5000960;28;20231;-83
2022/09/20 00:57:37;;;;;;;159.77;13.43;;;6.40;99.90;;;;;;5017703;28;21789;-81
2022/09/20 01:00:06;;;;;;;37.30;5.67;;;6.40;99.90;;;;;;5026151;28;20294;-81
2022/09/20 01:02:35;;;;;;;211.10;16.03;;;6.40;99.90;;;;;;5022700;28;20267;-82
2022/09/20 01:05:02;;;;;;;16.10;5.00;;;6.40;99.90;;;;;;5022472;28;20220;-81
2022/09/20 01:07:29;;;;;;;49.77;6.07;;;6.40;99.90;;;;;;5007815;28;20221;-81
2022/09/20 01:09:56;;;;;;;232.83;15.83;;;6.30;99.90;;;;;;5023035;28;20219;-81
2022/09/20 01:12:26;;;;;;;53.80;6.97;;;6.30;99.90;;;;;;5025719;28;20251;-83
2022/09/20 01:14:56;;;;;;;157.40;13.03;;;6.40;99.90;;;;;;5022679;28;20230;-80
2022/09/20 01:17:26;;;;;;;590.77;37.13;;;6.30;99.90;;;;;;5029368;28;20231;-81
2022/09/20 01:20:06;;;;;;;411.57;26.50;;;6.30;99.90;;;;;;5030278;28;20231;-80
2022/09/20 01:22:41;;;;;;;50.30;6.27;;;6.20;99.90;;;;;;5024490;28;20232;-80
2022/09/20 01:25:14;;;;;;;128.10;10.37;;;6.20;99.90;;;;;;5022558;28;20238;-79
2022/09/20 01:27:45;;;;;;;33.03;6.30;;;6.20;99.90;;;;;;5023779;28;20227;-80
2022/09/20 01:30:15;;;;;;;488.33;39.40;;;6.20;99.90;;;;;;5027104;28;20354;-81
2022/09/20 01:32:51;;;;;;;43.73;6.63;;;6.20;99.90;;;;;;5026089;28;20234;-80
2022/09/20 01:35:20;;;;;;;349.13;22.00;;;6.10;99.90;;;;;;5006463;28;20234;-80
2022/09/20 01:38:14;;;;;;;152.63;12.07;;;6.10;99.90;;;;;;5026328;28;20286;-80
2022/09/20 01:40:49;;;;;;;52.73;6.97;;;6.10;99.90;;;;;;5017871;28;20247;-81
2022/09/20 01:43:26;;;;;;;22.73;5.43;;;6.10;99.90;;;;;;5006550;28;20230;-80
2022/09/20 01:45:53;;;;;;;30.80;6.03;;;6.10;99.90;;;;;;4998756;28;20231;-79
2022/09/20 01:48:30;;;;;;;18.93;5.43;;;6.10;99.90;;;;;;5018717;28;20248;-79
2022/09/20 01:51:22;;;;;;;38.07;6.60;;;6.10;99.90;;;;;;5022234;28;20841;-80
2022/09/20 01:54:14;;;;;;;36.50;6.60;;;6.10;99.90;;;;;;5017596;28;20696;-81
2022/09/20 01:57:11;;;;;;;38.73;6.20;;;6.10;99.90;;;;;;5022891;28;20226;-79
2022/09/20 02:00:05;;;;;;;73.43;9.07;;;6.10;99.90;;;;;;5013712;28;20708;-79
2022/09/20 02:03:19;;;;;;;50.40;7.10;;;6.10;99.90;;;;;;5025164;28;20270;-83
2022/09/20 02:06:12;;;;;;;42.67;7.70;;;6.10;99.90;;;;;;5024118;28;20224;-80
2022/09/20 02:09:25;;;;;;;208.60;16.50;;;6.10;99.90;;;;;;5022665;28;20223;-80
2022/09/20 02:12:23;;;;;;;172.90;17.50;;;6.00;99.90;;;;;;5018302;28;21060;-80
2022/09/20 02:14:59;;;;;;;77.10;10.07;;;6.00;99.90;;;;;;5004138;28;20237;-81
2022/09/20 02:17:31;;;;;;;400.73;31.83;;;6.00;99.90;;;;;;5022221;28;20886;-80
2022/09/20 02:20:15;;;;;;;354.20;26.67;;;6.00;99.90;;;;;;5005940;28;20228;-81
2022/09/20 02:22:52;;;;;;;590.13;45.23;;;6.00;99.90;;;;;;5000675;28;20226;-81
2022/09/20 02:25:35;;;;;;;276.40;23.90;;;6.00;99.90;;;;;;5020650;28;20261;-81
2022/09/20 02:28:18;;;;;;;155.53;14.23;;;5.90;99.90;;;;;;5002012;28;20230;-84
2022/09/20 02:30:55;;;;;;;144.70;13.47;;;5.90;99.90;;;;;;5010147;28;20321;-81
2022/09/20 02:33:40;;;;;;;65.10;9.70;;;5.90;99.90;;;;;;5025869;28;20222;-80
2022/09/20 02:36:26;;;;;;;51.20;8.57;;;5.80;99.90;;;;;;5021970;28;20230;-80
2022/09/20 02:39:02;;;;;;;441.67;33.43;;;5.80;99.90;;;;;;5024573;28;20221;-83
2022/09/20 02:41:52;;;;;;;38.40;7.00;;;5.80;99.90;;;;;;5028531;28;20302;-81
2022/09/20 02:44:29;;;;;;;76.13;10.20;;;5.80;99.90;;;;;;5017173;28;20248;-81
2022/09/20 02:47:09;;;;;;;343.70;26.47;;;5.70;99.90;;;;;;5022908;28;20219;-82
2022/09/20 02:49:44;;;;;;;383.13;32.90;;;5.70;99.90;;;;;;5029486;28;20228;-81
2022/09/20 02:52:20;;;;;;;209.53;16.40;;;5.70;99.90;;;;;;5012926;28;20252;-83
2022/09/20 02:54:54;;;;;;;41.37;8.80;;;5.60;99.90;;;;;;5022650;28;20233;-81
2022/09/20 02:57:26;;;;;;;451.13;39.20;;;5.70;99.90;;;;;;5006014;28;20225;-82
2022/09/20 03:00:00;;;;;;;68.10;10.27;;;5.60;99.90;;;;;;5023963;28;20628;-82
2022/09/20 03:02:39;;;;;;;721.17;48.53;;;5.60;99.90;;;;;;5001989;28;20227;-81
2022/09/20 03:05:13;;;;;;;89.03;11.10;;;5.60;99.90;;;;;;5021834;28;20221;-82
2022/09/20 03:07:54;;;;;;;127.17;14.10;;;5.60;99.90;;;;;;5018512;28;20251;-84
2022/09/20 03:10:27;;;;;;;49.17;7.83;;;5.60;99.90;;;;;;5023914;28;20271;-82
2022/09/20 03:13:10;;;;;;;40.27;8.87;;;5.60;99.90;;;;;;5023831;28;20602;-81
2022/09/20 03:15:48;;;;;;;36.27;8.97;;;5.60;99.90;;;;;;5027322;28;20230;-79
2022/09/20 03:18:21;;;;;;;155.17;16.90;;;5.60;99.90;;;;;;5009460;28;20232;-79
2022/09/20 03:20:58;;;;;;;102.03;12.80;;;5.60;99.90;;;;;;5026581;28;20235;-79
2022/09/20 03:23:40;;;;;;;107.57;13.37;;;5.60;99.90;;;;;;5025367;28;20722;-79
2022/09/20 03:26:18;;;;;;;22.40;6.50;;;5.60;99.90;;;;;;5009670;28;20331;-81
2022/09/20 03:29:02;;;;;;;67.63;10.00;;;5.60;99.90;;;;;;5023431;28;20232;-82
2022/09/20 03:31:58;;;;;;;98.70;13.20;;;5.60;99.90;;;;;;5005933;28;20225;-80
2022/09/20 03:34:39;;;;;;;20.93;6.93;;;5.70;99.90;;;;;;5004825;28;20228;-81
2022/09/20 03:37:23;;;;;;;22.93;6.60;;;5.60;99.90;;;;;;5003172;28;20231;-81
2022/09/20 03:40:36;;;;;;;14.37;6.77;;;5.60;99.90;;;;;;5013444;28;20240;-81
2022/09/20 03:43:13;;;;;;;388.43;35.47;;;5.60;99.90;;;;;;4967003;28;20378;-81
2022/09/20 03:46:00;;;;;;;113.30;13.63;;;5.60;99.90;;;;;;5022456;28;20231;-80
2022/09/20 03:48:56;;;;;;;61.13;9.10;;;5.60;99.90;;;;;;5018557;28;20225;-80
2022/09/20 03:51:29;;;;;;;14.20;5.93;;;5.60;99.90;;;;;;4986913;28;20227;-79
2022/09/20 03:54:33;;;;;;;22.40;6.97;;;5.60;99.90;;;;;;5023721;28;20222;-80
2022/09/20 03:57:19;;;;;;;20.70;6.53;;;5.60;99.90;;;;;;5003965;28;20824;-80
2022/09/20 04:00:07;;;;;;;57.60;9.47;;;5.60;99.90;;;;;;5003070;28;20308;-81
2022/09/20 04:02:55;;;;;;;10.43;5.47;;;5.50;99.90;;;;;;5010955;28;20698;-81
2022/09/20 04:05:31;;;;;;;16.30;6.47;;;5.50;99.90;;;;;;5025267;28;20222;-82
2022/09/20 04:08:11;;;;;;;17.10;5.53;;;5.50;99.90;;;;;;5032852;28;20223;-82
2022/09/20 04:10:46;;;;;;;20.83;6.03;;;5.40;99.90;;;;;;5020799;28;20221;-81
2022/09/20 04:13:27;;;;;;;12.53;6.17;;;5.40;99.90;;;;;;5005587;28;20289;-82
2022/09/20 04:16:07;;;;;;;62.23;9.10;;;5.40;99.90;;;;;;5018110;28;20284;-79
2022/09/20 04:18:40;;;;;;;19.37;6.53;;;5.30;99.90;;;;;;5025526;28;20829;-80
2022/09/20 04:21:14;;;;;;;12.23;6.20;;;5.30;99.90;;;;;;5027883;28;20883;-79
2022/09/20 04:23:50;;;;;;;14.70;5.50;;;5.30;99.90;;;;;;5025141;28;20244;-84
2022/09/20 04:26:24;;;;;;;188.20;16.60;;;5.30;99.90;;;;;;5003378;28;20700;-85
2022/09/20 04:28:57;;;;;;;29.17;6.23;;;5.30;99.90;;;;;;5005381;28;20309;-82
2022/09/20 04:31:35;;;;;;;193.27;15.67;;;5.20;99.90;;;;;;5004264;28;20238;-82
2022/09/20 04:34:08;;;;;;;18.87;8.03;;;5.20;99.90;;;;;;5021550;28;20713;-83
2022/09/20 04:36:53;;;;;;;47.87;13.97;;;5.20;99.90;;;;;;5007562;28;20231;-81
2022/09/20 04:39:30;;;;;;;58.40;12.00;;;5.20;99.90;;;;;;5012729;28;20954;-81
2022/09/20 04:42:27;;;;;;;482.63;42.17;;;5.10;99.90;;;;;;5028766;28;20276;-81
2022/09/20 04:45:32;;;;;;;23.20;7.13;;;5.10;99.90;;;;;;5026684;28;20231;-81
2022/09/20 04:48:45;;;;;;;14.70;5.97;;;5.00;99.90;;;;;;5033668;28;20226;-81
2022/09/20 04:51:34;;;;;;;15.57;6.10;;;5.00;99.90;;;;;;5026128;28;20218;-81
2022/09/20 04:54:33;;;;;;;16.43;6.20;;;4.90;99.90;;;;;;5025590;28;20218;-81
2022/09/20 04:57:22;;;;;;;13.40;5.07;;;4.90;99.90;;;;;;5030442;28;20229;-81
2022/09/20 05:00:02;;;;;;;146.33;13.90;;;4.80;99.90;;;;;;5027298;28;20240;-80
2022/09/20 05:03:01;;;;;;;115.40;11.63;;;4.80;99.90;;;;;;5007308;28;20248;-79
2022/09/20 05:05:54;;;;;;;50.30;7.80;;;4.80;99.90;;;;;;5012692;28;20226;-81
2022/09/20 05:08:59;;;;;;;254.27;20.13;;;4.70;99.90;;;;;;5027475;28;20230;-83
2022/09/20 05:12:01;;;;;;;35.57;6.67;;;4.70;99.90;;;;;;5008241;28;20241;-84
2022/09/20 05:15:07;;;;;;;105.93;10.63;;;4.60;99.90;;;;;;4983430;28;20288;-85
2022/09/20 05:17:45;;;;;;;53.07;7.67;;;4.60;99.90;;;;;;5014800;28;20748;-80
2022/09/20 05:20:45;;;;;;;144.67;14.30;;;4.50;99.90;;;;;;5030793;28;20324;-80
2022/09/20 05:23:37;;;;;;;23.63;6.80;;;4.50;99.90;;;;;;5011931;28;20252;-80
2022/09/20 05:26:09;;;;;;;11.10;5.60;;;4.50;99.90;;;;;;5026351;28;20222;-80
2022/09/20 05:28:48;;;;;;;154.93;14.70;;;4.50;99.90;;;;;;5030317;28;20241;-80
2022/09/20 05:31:24;;;;;;;95.97;11.63;;;4.50;99.90;;;;;;5026496;28;20217;-80
2022/09/20 05:33:56;;;;;;;29.97;7.20;;;4.50;99.90;;;;;;5029018;28;20231;-83
2022/09/20 05:36:30;;;;;;;87.60;10.80;;;4.50;99.90;;;;;;5004155;28;20827;-84
2022/09/20 05:39:01;;;;;;;8.73;4.80;;;4.50;99.90;;;;;;5015232;28;20217;-83
2022/09/20 05:41:37;;;;;;;20.77;6.00;;;4.60;99.90;;;;;;5024853;28;20778;-83
2022/09/20 05:44:16;;;;;;;12.60;6.47;;;4.60;99.90;;;;;;5026170;28;20242;-83
2022/09/20 05:46:57;;;;;;;11.60;5.23;;;4.60;99.90;;;;;;5023320;28;20227;-83
2022/09/20 05:49:38;;;;;;;31.40;7.03;;;4.70;99.90;;;;;;5008775;28;20237;-83
2022/09/20 05:52:21;;;;;;;18.83;5.90;;;4.80;99.90;;;;;;5029020;28;20227;-83
2022/09/20 05:55:05;;;;;;;9.93;6.07;;;4.80;99.90;;;;;;5009838;28;20243;-83
2022/09/20 05:57:47;;;;;;;69.40;10.03;;;4.80;99.90;;;;;;5007142;28;20235;-83
2022/09/20 06:00:17;;;;;;;76.03;10.47;;;4.90;99.90;;;;;;4990153;28;20223;-83
2022/09/20 06:02:54;;;;;;;14.47;6.00;;;4.90;99.90;;;;;;5002843;28;20270;-83
2022/09/20 06:05:32;;;;;;;12.73;6.40;;;5.00;99.90;;;;;;5006315;28;20225;-83
2022/09/20 06:08:15;;;;;;;13.27;5.60;;;5.10;99.90;;;;;;5005683;28;20219;-83
2022/09/20 06:10:51;;;;;;;10.57;6.03;;;5.10;99.90;;;;;;5022702;28;20229;-83
2022/09/20 06:13:34;;;;;;;14.40;5.70;;;5.20;99.90;;;;;;5029517;28;20310;-83
2022/09/20 06:16:03;;;;;;;9.73;5.63;;;5.30;99.90;;;;;;5021766;28;20226;-83
2022/09/20 06:18:36;;;;;;;12.80;5.97;;;5.40;99.90;;;;;;5009514;28;20309;-82
2022/09/20 06:21:16;;;;;;;9.63;5.37;;;5.40;99.90;;;;;;5026903;28;20241;-83
2022/09/20 06:23:43;;;;;;;11.73;6.07;;;5.50;99.90;;;;;;5009114;28;20236;-83
2022/09/20 06:26:15;;;;;;;11.73;6.20;;;5.60;99.90;;;;;;5031692;28;20226;-83
2022/09/20 06:28:47;;;;;;;34.77;6.83;;;5.60;99.90;;;;;;5010944;28;20284;-82
2022/09/20 06:31:15;;;;;;;8.60;5.40;;;5.70;99.90;;;;;;5024805;28;20231;-83
2022/09/20 06:33:49;;;;;;;13.97;5.30;;;5.80;99.90;;;;;;5010611;28;20625;-83
2022/09/20 06:41:58;;;;;;;12.40;5.50;;;5.90;99.90;;;;;;5028790;28;20581;-83
2022/09/20 06:44:26;;;;;;;8.60;4.70;;;6.00;99.90;;;;;;5008473;28;20660;-83
2022/09/20 06:46:53;;;;;;;10.23;5.73;;;6.00;99.90;;;;;;5018653;28;20228;-83
2022/09/20 06:49:21;;;;;;;12.37;5.47;;;6.10;99.90;;;;;;5004279;28;20228;-83
2022/09/20 06:51:49;;;;;;;10.43;5.37;;;6.20;99.90;;;;;;5010248;28;20230;-79
2022/09/20 06:54:18;;;;;;;11.07;5.37;;;6.20;99.90;;;;;;5026291;28;20231;-79
2022/09/20 06:56:46;;;;;;;12.20;5.93;;;6.30;99.90;;;;;;5003460;28;20239;-80
2022/09/20 06:59:14;;;;;;;11.30;5.47;;;6.40;99.90;;;;;;5005589;28;20244;-79
2022/09/20 07:01:41;;;;;;;10.00;5.03;;;6.50;99.90;;;;;;4988034;28;20701;-82
2022/09/20 07:04:08;;;;;;;9.80;4.93;;;6.50;99.90;;;;;;5002731;28;20243;-80
2022/09/20 07:06:36;;;;;;;9.90;4.60;;;6.60;99.90;;;;;;5005437;28;20408;-80
2022/09/20 07:09:04;;;;;;;8.20;4.00;;;6.70;99.90;;;;;;5008063;28;20221;-81
2022/09/20 07:11:30;;;;;;;9.37;4.00;;;6.80;99.90;;;;;;5009657;28;20224;-81
2022/09/20 07:13:58;;;;;;;9.90;4.23;;;6.90;99.90;;;;;;5005033;28;20230;-84
2022/09/20 07:16:25;;;;;;;7.40;4.17;;;6.90;99.90;;;;;;5000993;28;20520;-84
2022/09/20 07:18:52;;;;;;;7.40;4.10;;;7.00;99.90;;;;;;4986026;28;20228;-81
2022/09/20 07:21:20;;;;;;;9.27;4.50;;;7.10;99.90;;;;;;5001959;28;20228;-83
2022/09/20 07:23:49;;;;;;;15.13;4.20;;;7.20;99.90;;;;;;4988764;28;20333;-82
2022/09/20 07:26:18;;;;;;;11.73;3.50;;;7.30;99.90;;;;;;4999610;28;20300;-83
2022/09/20 07:28:45;;;;;;;10.43;3.93;;;7.40;99.90;;;;;;5001019;28;20226;-83
2022/09/20 07:31:12;;;;;;;12.57;4.17;;;7.50;99.90;;;;;;4977069;28;20301;-84
2022/09/20 07:33:39;;;;;;;11.37;3.67;;;7.60;99.90;;;;;;5003146;28;20981;-83
2022/09/20 07:36:06;;;;;;;9.70;3.77;;;7.70;99.90;;;;;;4990502;28;20225;-83
2022/09/20 07:38:33;;;;;;;14.00;3.80;;;7.70;99.90;;;;;;5004442;28;20243;-83
2022/09/20 07:41:02;;;;;;;9.40;3.40;;;7.80;99.90;;;;;;4986360;28;20234;-83
2022/09/20 07:43:30;;;;;;;11.53;3.63;;;8.00;99.90;;;;;;4987228;28;20593;-82
2022/09/20 07:45:58;;;;;;;9.87;3.83;;;8.10;99.90;;;;;;5009354;28;20242;-82
2022/09/20 07:48:27;;;;;;;12.67;3.73;;;8.30;99.90;;;;;;5005376;28;20723;-82
2022/09/20 07:50:55;;;;;;;9.57;2.90;;;8.40;99.90;;;;;;4986178;28;20225;-82
2022/09/20 07:53:22;;;;;;;10.07;2.83;;;8.50;99.90;;;;;;4994572;28;20220;-83
2022/09/20 07:56:01;;;;;;;10.17;2.93;;;8.60;99.90;;;;;;4990757;28;20898;-83
2022/09/20 07:58:29;;;;;;;11.93;2.60;;;8.70;99.90;;;;;;4990097;28;20233;-83
2022/09/20 08:00:57;;;;;;;8.43;2.70;;;8.80;99.90;;;;;;4989727;28;20226;-83
2022/09/20 08:03:24;;;;;;;9.60;2.50;;;8.90;99.90;;;;;;4988027;28;20239;-83
2022/09/20 08:05:52;;;;;;;8.73;2.33;;;9.00;99.90;;;;;;5007124;28;20324;-82
2022/09/20 08:08:19;;;;;;;11.30;3.00;;;9.10;99.90;;;;;;5005809;28;20214;-82
2022/09/20 08:10:47;;;;;;;9.67;2.97;;;9.20;99.90;;;;;;5025427;28;20260;-82
2022/09/20 08:13:15;;;;;;;7.13;2.33;;;9.30;99.90;;;;;;5025635;28;20240;-82
2022/09/20 08:15:43;;;;;;;10.20;2.43;;;9.40;99.90;;;;;;5007701;28;20229;-82
2022/09/20 08:18:10;;;;;;;14.77;2.40;;;9.50;99.90;;;;;;5024207;28;20236;-80
2022/09/20 08:20:37;;;;;;;10.40;2.90;;;9.70;99.90;;;;;;5002382;28;20217;-81
2022/09/20 08:23:04;;;;;;;7.73;2.57;;;10.00;99.90;;;;;;5023860;28;20221;-81
2022/09/20 08:25:32;;;;;;;8.37;2.30;;;10.50;99.90;;;;;;5004689;28;20228;-81
2022/09/20 08:27:59;;;;;;;10.03;2.50;;;11.10;99.90;;;;;;5003486;28;20256;-82
2022/09/20 08:30:27;;;;;;;9.83;1.83;;;11.60;99.90;;;;;;5004421;28;20306;-83
2022/09/20 08:32:54;;;;;;;13.73;2.47;;;12.30;99.90;;;;;;5009981;28;20224;-84
2022/09/20 08:35:24;;;;;;;6.33;2.30;;;12.90;99.90;;;;;;4999063;28;20226;-83
2022/09/20 08:37:53;;;;;;;10.83;2.23;;;13.60;99.90;;;;;;5021264;28;20235;-84
2022/09/20 08:40:23;;;;;;;10.83;2.07;;;14.30;99.90;;;;;;5024254;28;20228;-84
2022/09/20 08:42:52;;;;;;;11.63;2.23;;;14.90;99.90;;;;;;5018949;28;20227;-84
2022/09/20 08:45:21;;;;;;;8.87;2.10;;;15.60;99.90;;;;;;5020893;28;20741;-84
2022/09/20 08:47:53;;;;;;;9.37;1.97;;;16.10;99.90;;;;;;5001487;28;20241;-84
2022/09/20 08:50:20;;;;;;;9.07;1.80;;;16.60;99.90;;;;;;5000479;28;20226;-85
2022/09/20 08:52:49;;;;;;;10.87;2.03;;;17.10;99.90;;;;;;5019480;28;20224;-85
2022/09/20 08:55:19;;;;;;;7.43;2.30;;;17.40;99.90;;;;;;5022577;28;20311;-85
2022/09/20 08:57:49;;;;;;;9.67;2.30;;;17.80;99.90;;;;;;5001575;28;20250;-85
2022/09/20 09:00:18;;;;;;;8.80;1.90;;;18.20;99.90;;;;;;5021147;28;20846;-84
2022/09/20 09:02:45;;;;;;;6.63;1.80;;;18.50;99.90;;;;;;5019325;28;20221;-85
2022/09/20 09:05:32;;;;;;;9.73;1.83;;;18.80;99.90;;;;;;5017627;28;20395;-85
2022/09/20 09:08:00;;;;;;;6.00;1.90;;;19.00;99.90;;;;;;4999011;28;20430;-84
2022/09/20 09:10:34;;;;;;;7.57;1.73;;;19.20;99.90;;;;;;5001134;28;20359;-84
2022/09/20 09:13:01;;;;;;;4.83;1.60;;;19.40;99.90;;;;;;5021816;28;20231;-85
2022/09/20 09:15:31;;;;;;;4.97;1.60;;;19.50;99.90;;;;;;5003720;28;20231;-84
2022/09/20 09:17:58;;;;;;;5.93;1.87;;;19.60;99.90;;;;;;5002088;28;20239;-84
2022/09/20 09:20:26;;;;;;;4.53;1.70;;;19.80;99.90;;;;;;5024124;28;20303;-85
2022/09/20 09:23:01;;;;;;;7.88;1.60;;;19.90;99.90;;;;;;5025069;28;20232;-84
2022/09/20 09:25:31;;;;;;;10.07;2.07;;;20.00;99.90;;;;;;5021588;28;20234;-84
2022/09/20 09:27:59;;;;;;;4.67;1.40;;;20.10;99.90;;;;;;5020219;28;20217;-84
2022/09/20 09:30:29;;;;;;;7.13;1.90;;;20.00;99.90;;;;;;5021804;28;20224;-84
2022/09/20 09:33:16;;;;;;;5.20;1.53;;;20.00;99.90;;;;;;5023967;28;20368;-84
2022/09/20 09:35:45;;;;;;;10.07;1.90;;;20.10;99.90;;;;;;5023020;28;20829;-84
2022/09/20 09:38:20;;;;;;;6.97;1.33;;;20.10;99.90;;;;;;5015286;23;20268;-84
2022/09/20 09:40:53;;;;;;;9.37;1.67;;;20.10;99.90;;;;;;5072629;28;20230;-85
2022/09/20 09:43:22;;;;;;;6.27;1.60;;;20.20;99.90;;;;;;5101165;28;20219;-85
2022/09/20 09:45:49;;;;;;;6.73;1.80;;;20.30;99.90;;;;;;5088073;28;20233;-86
2022/09/20 09:48:23;;;;;;;5.22;1.38;;;20.40;99.90;;;;;;5084643;28;20231;-85
2022/09/20 09:51:06;;;;;;;6.60;1.98;;;20.50;99.90;;;;;;5093206;27;20550;-86
2022/09/20 09:53:35;;;;;;;4.85;1.40;;;20.50;99.90;;;;;;5086114;28;20230;-86
2022/09/20 09:56:46;;;;;;;5.35;1.38;;;20.60;99.90;;;;;;5091876;28;20223;-85
2022/09/20 09:59:38;;;;;;;7.65;1.83;;;20.70;99.10;;;;;;5059445;27;20233;-86
2022/09/20 10:02:27;;;;;;;5.40;1.58;;;20.80;98.80;;;;;;5098509;28;20229;-85
2022/09/20 10:05:02;;;;;;;6.65;2.05;;;21.00;98.90;;;;;;5089431;28;20698;-85
2022/09/20 10:07:37;;;;;;;5.40;1.60;;;21.30;98.60;;;;;;5084154;28;20749;-86
2022/09/20 10:10:15;;;;;;;3.53;1.27;;;21.40;97.70;;;;;;5081007;28;20230;-84
2022/09/20 10:12:56;;;;;;;5.35;1.30;;;21.30;97.20;;;;;;5083562;28;20219;-85
2022/09/20 10:15:35;;;;;;;4.50;1.48;;;21.20;96.50;;;;;;5086118;28;20265;-85
2022/09/20 10:18:19;;;;;;;6.80;1.50;;;21.30;97.20;;;;;;5085432;28;20210;-88
2022/09/20 10:20:57;;;;;;;5.35;1.42;;;21.50;96.70;;;;;;5085860;28;20306;-88
2022/09/20 10:23:41;;;;;;;5.13;1.40;;;21.60;95.90;;;;;;5088196;27;20237;-85
2022/09/20 10:26:21;;;;;;;4.70;1.60;;;21.70;95.50;;;;;;5082981;28;20217;-86
2022/09/20 10:28:57;;;;;;;4.75;1.40;;;21.80;95.50;;;;;;5083104;28;20231;-87
2022/09/20 10:31:39;;;;;;;4.63;1.48;;;21.90;94.70;;;;;;5080321;28;20241;-86
2022/09/20 10:34:27;;;;;;;4.18;1.40;;;21.70;93.50;;;;;;5079363;28;20638;-87
2022/09/20 10:36:56;;;;;;;6.13;1.63;;;21.40;92.80;;;;;;5094478;28;20233;-86
2022/09/20 10:39:29;;;;;;;5.63;1.30;;;21.10;93.40;;;;;;5085051;28;20272;-86
2022/09/20 10:45:02;;;;;;;5.45;1.40;;;20.70;92.50;;;;;;5087339;28;20222;-89
2022/09/20 10:47:34;;;;;;;4.07;1.83;;;20.70;92.80;;;;;;5084986;28;20289;-85
2022/09/20 10:50:07;;;;;;;4.65;1.70;;;20.80;93.20;;;;;;5081804;28;20223;-86
2022/09/20 10:52:47;;;;;;;5.03;1.30;;;21.00;93.70;;;;;;5086833;28;20279;-86
2022/09/20 10:55:29;;;;;;;5.65;1.42;;;21.30;93.20;;;;;;5086406;27;20252;-86
2022/09/20 10:58:16;;;;;;;4.35;1.50;;;21.50;92.60;;;;;;5086753;28;20233;-89
2022/09/20 11:00:50;;;;;;;5.95;1.40;;;21.70;90.90;;;;;;5093292;28;20886;-87
2022/09/20 11:03:31;;;;;;;4.35;1.40;;;21.80;90.70;;;;;;5089676;28;20704;-86
2022/09/20 11:06:13;;;;;;;5.15;1.23;;;21.90;90.90;;;;;;5077380;28;20231;-85
2022/09/20 11:08:42;;;;;;;3.90;1.65;;;22.20;92.00;;;;;;5087381;28;20240;-86
2022/09/20 11:11:15;;;;;;;4.60;1.40;;;22.30;90.30;;;;;;5086076;28;20219;-86
2022/09/20 11:13:46;;;;;;;3.67;1.48;;;22.50;90.00;;;;;;5088975;28;20281;-85
2022/09/20 11:16:18;;;;;;;4.75;1.30;;;22.70;90.50;;;;;;5086037;28;20222;-86
2022/09/20 11:18:51;;;;;;;6.28;1.40;;;22.90;89.90;;;;;;5089128;28;20230;-86
2022/09/20 11:21:24;;;;;;;5.65;1.40;;;23.00;86.70;;;;;;5087674;28;20310;-86
2022/09/20 11:23:56;;;;;;;4.35;1.20;;;23.10;84.10;;;;;;5090308;28;20482;-90
2022/09/20 11:26:31;;;;;;;3.03;0.98;;;23.00;82.10;;;;;;5087469;28;20297;-86
2022/09/20 11:29:03;;;;;;;4.22;1.17;;;22.90;83.90;;;;;;5085490;28;20214;-86
2022/09/20 11:31:35;;;;;;;4.13;1.70;;;22.70;82.70;;;;;;5087052;28;20226;-86
2022/09/20 11:34:10;;;;;;;4.27;1.00;;;22.40;81.90;;;;;;5087813;27;20219;-85
2022/09/20 11:36:48;;;;;;;2.70;1.02;;;22.00;82.60;;;;;;5091862;28;20228;-86
2022/09/20 11:39:20;;;;;;;4.75;1.30;;;21.70;83.00;;;;;;5087297;28;20804;-86
2022/09/20 11:41:51;;;;;;;3.58;0.82;;;21.50;82.00;;;;;;5088117;28;20333;-89
2022/09/20 11:44:19;;;;;;;3.97;1.10;;;21.50;83.90;;;;;;5105409;27;20222;-86
2022/09/20 11:46:54;;;;;;;2.42;0.90;;;21.60;83.80;;;;;;5083149;28;20227;-86
2022/09/20 11:49:25;;;;;;;4.40;0.77;;;21.70;84.30;;;;;;5099796;27;20218;-86
2022/09/20 11:52:27;;;;;;;6.38;1.30;;;21.90;84.80;;;;;;5088534;28;20273;-87
2022/09/20 11:55:27;;;;;;;2.78;0.98;;;22.10;86.10;;;;;;5086511;28;20219;-86
2022/09/20 11:58:06;;;;;;;6.70;1.73;;;22.20;80.70;;;;;;5077384;28;20908;-87
2022/09/20 12:00:36;;;;;;;3.10;1.17;;;22.40;79.90;;;;;;5087245;28;20454;-86
2022/09/20 12:03:07;;;;;;;5.07;1.38;;;22.40;81.90;;;;;;5107271;28;20241;-86
2022/09/20 12:05:36;;;;;;;5.50;1.88;;;22.50;80.80;;;;;;5115604;27;20226;-86
2022/09/20 12:08:07;;;;;;;5.47;1.20;;;22.60;82.00;;;;;;5082568;28;20227;-86
2022/09/20 12:10:37;;;;;;;5.60;1.30;;;22.70;80.60;;;;;;5089010;28;20214;-85
2022/09/20 12:13:08;;;;;;;3.65;1.33;;;22.80;80.40;;;;;;5088168;28;20310;-85
2022/09/20 12:15:38;;;;;;;4.45;1.40;;;22.80;80.00;;;;;;5092323;28;20230;-85
2022/09/20 12:18:31;;;;;;;5.88;1.83;;;22.70;79.50;;;;;;5086752;28;20693;-86
2022/09/20 12:21:01;;;;;;;4.88;1.40;;;22.40;78.40;;;;;;5086765;28;20233;-86
2022/09/20 12:23:45;;;;;;;6.05;1.80;;;22.20;79.40;;;;;;5088952;28;20218;-86
2022/09/20 12:26:32;;;;;;;6.27;1.60;;;21.80;79.70;;;;;;5087765;28;20221;-86
2022/09/20 12:29:02;;;;;;;7.77;1.47;;;21.50;80.10;;;;;;5087524;28;20310;-86
2022/09/20 12:31:39;;;;;;;4.27;1.43;;;21.10;79.50;;;;;;5089774;28;20228;-86
2022/09/20 12:34:34;;;;;;;3.33;1.30;;;20.80;78.40;;;;;;5079321;28;20225;-86
2022/09/20 12:37:21;;;;;;;9.10;1.70;;;20.40;79.80;;;;;;5099676;28;20222;-85
2022/09/20 12:39:53;;;;;;;3.63;1.23;;;20.00;80.10;;;;;;5090229;28;20606;-86
2022/09/20 12:42:28;;;;;;;5.40;1.20;;;19.70;79.60;;;;;;5088435;28;20241;-86
2022/09/20 12:45:06;;;;;;;4.17;1.33;;;19.40;79.90;;;;;;5087344;28;20232;-85
2022/09/20 12:47:34;;;;;;;3.33;1.10;;;19.20;81.60;;;;;;5085279;28;20715;-86
2022/09/20 12:52:56;;;;;;;5.30;1.30;;;19.10;82.20;;;;;;5087255;28;20243;-85
2022/09/20 12:55:44;;;;;;;2.53;0.90;;;19.10;81.70;;;;;;5093061;28;20221;-86
2022/09/20 12:58:34;;;;;;;2.90;0.70;;;19.10;80.30;;;;;;5090943;28;20289;-86
2022/09/20 13:01:31;;;;;;;3.53;1.07;;;19.20;80.60;;;;;;5086461;28;20259;-86
2022/09/20 13:04:36;;;;;;;2.30;1.00;;;19.30;82.10;;;;;;5088616;28;20217;-86
2022/09/20 13:07:36;;;;;;;4.73;1.37;;;19.60;79.20;;;;;;5091165;28;20214;-86
2022/09/20 13:10:16;;;;;;;5.87;1.20;;;19.80;81.50;;;;;;5089800;27;20674;-85
2022/09/20 13:12:45;;;;;;;3.20;1.23;;;20.10;81.10;;;;;;5089851;28;20234;-85
2022/09/20 13:15:18;;;;;;;3.97;1.07;;;20.30;81.80;;;;;;5080593;28;20767;-84
2022/09/20 13:17:49;;;;;;;4.30;1.10;;;20.40;78.70;;;;;;5088852;28;20835;-84
2022/09/20 13:20:20;;;;;;;4.20;0.93;;;20.50;79.40;;;;;;5087776;28;20226;-84
2022/09/20 13:22:47;;;;;;;3.03;1.23;;;20.70;79.70;;;;;;5086736;28;20234;-84
2022/09/20 13:25:16;;;;;;;4.70;1.27;;;20.80;79.40;;;;;;5087590;28;20244;-84
2022/09/20 13:27:49;;;;;;;4.45;1.13;;;21.00;79.20;;;;;;5098182;28;20233;-84
2022/09/20 13:30:19;;;;;;;3.40;1.15;;;21.20;79.40;;;;;;5089041;28;20241;-84
2022/09/20 13:32:49;;;;;;;3.25;1.00;;;21.40;79.30;;;;;;5089162;28;20801;-83
2022/09/20 13:35:17;;;;;;;4.27;1.10;;;21.60;77.20;;;;;;5086548;28;20223;-84
2022/09/20 13:37:52;;;;;;;4.50;1.00;;;21.70;75.60;;;;;;5089411;28;20230;-85
2022/09/20 13:40:20;;;;;;;2.97;0.87;;;21.60;75.60;;;;;;5087707;28;20230;-85